Time;durP1;ratioP1;P1;durP2;ratioP2;P2;SDS_P1;SDS_P2;PMS_P1;PMS_P2;Temp;Humidity;BMP_temperature;BMP_pressure;BME280_temperature;BME280_humidity;BME280_pressure;Samples;Min_cycle;Max_cycle;Signal;HPM_P1;HPM_P2
2022/01/31 00:01:27;;;;;;;20.05;4.55;;;2.90;99.90;;;;;;5130429;27;20471;-52
2022/01/31 00:03:52;;;;;;;26.15;4.97;;;2.90;99.90;;;;;;5131044;27;20083;-51
2022/01/31 00:06:18;;;;;;;29.65;6.07;;;2.90;99.90;;;;;;5130418;27;20169;-50
2022/01/31 00:08:44;;;;;;;22.73;5.18;;;3.00;99.90;;;;;;5131032;27;20022;-55
2022/01/31 00:11:10;;;;;;;22.98;5.55;;;2.90;99.90;;;;;;5112502;27;20030;-49
2022/01/31 00:13:40;;;;;;;19.02;4.97;;;2.90;99.90;;;;;;5129989;27;20033;-51
2022/01/31 00:16:08;;;;;;;20.38;4.15;;;2.90;99.90;;;;;;5130305;27;20027;-50
2022/01/31 00:18:34;;;;;;;21.50;4.63;;;2.90;99.90;;;;;;5129226;27;20011;-52
2022/01/31 00:21:00;;;;;;;21.95;4.88;;;2.90;99.90;;;;;;5129928;27;20064;-50
2022/01/31 00:23:25;;;;;;;24.17;5.10;;;2.90;99.90;;;;;;5128795;27;20030;-50
2022/01/31 00:25:51;;;;;;;26.23;5.68;;;2.90;99.90;;;;;;5130529;27;20021;-48
2022/01/31 00:28:17;;;;;;;25.92;6.07;;;2.90;99.90;;;;;;5129692;27;20727;-49
2022/01/31 00:30:42;;;;;;;23.65;5.03;;;2.90;99.90;;;;;;5130568;27;20096;-49
2022/01/31 00:33:08;;;;;;;23.38;5.43;;;2.80;99.90;;;;;;5129488;27;20060;-50
2022/01/31 00:35:34;;;;;;;22.80;5.20;;;2.90;99.90;;;;;;5130023;27;20076;-49
2022/01/31 00:38:00;;;;;;;21.55;5.32;;;2.90;99.90;;;;;;5130944;27;20090;-50
2022/01/31 00:40:25;;;;;;;27.73;6.43;;;2.90;99.90;;;;;;5129512;27;20054;-50
2022/01/31 00:42:51;;;;;;;22.23;5.03;;;2.80;99.90;;;;;;5110359;27;20050;-49
2022/01/31 00:45:28;;;;;;;21.98;4.90;;;2.80;99.90;;;;;;5130033;27;20436;-48
2022/01/31 00:48:02;;;;;;;22.27;6.22;;;2.80;99.90;;;;;;5129948;27;20022;-50
2022/01/31 00:50:30;;;;;;;24.05;5.35;;;2.90;99.90;;;;;;5129378;27;20032;-51
2022/01/31 00:52:56;;;;;;;25.30;5.25;;;2.80;99.90;;;;;;5111293;27;20026;-50
2022/01/31 00:55:22;;;;;;;23.70;6.25;;;2.80;99.90;;;;;;5129005;27;20105;-49
2022/01/31 00:57:47;;;;;;;18.58;4.70;;;2.80;99.90;;;;;;5130195;27;20575;-50
2022/01/31 01:00:15;;;;;;;28.27;4.63;;;2.80;99.90;;;;;;5128725;27;20058;-51
2022/01/31 01:02:41;;;;;;;24.80;6.90;;;2.80;99.90;;;;;;5128516;27;20070;-49
2022/01/31 01:05:07;;;;;;;18.67;5.60;;;2.80;99.90;;;;;;5129775;27;20041;-47
2022/01/31 01:07:33;;;;;;;22.45;5.40;;;2.70;99.90;;;;;;5128268;27;20024;-47
2022/01/31 01:09:58;;;;;;;25.15;5.97;;;2.70;99.90;;;;;;5129371;27;20053;-51
2022/01/31 01:12:24;;;;;;;20.58;5.22;;;2.70;99.90;;;;;;5128374;27;20061;-48
2022/01/31 01:14:50;;;;;;;19.95;4.97;;;2.70;99.90;;;;;;5129359;27;20034;-49
2022/01/31 01:17:16;;;;;;;16.40;5.30;;;2.70;99.90;;;;;;5129426;27;20118;-49
2022/01/31 01:19:43;;;;;;;18.92;4.07;;;2.70;99.90;;;;;;5111194;27;20102;-48
2022/01/31 01:22:10;;;;;;;20.00;4.50;;;2.70;99.90;;;;;;5110017;27;20773;-50
2022/01/31 01:24:35;;;;;;;21.70;4.68;;;2.70;99.90;;;;;;5126334;27;20424;-46
2022/01/31 01:27:01;;;;;;;22.17;4.97;;;2.70;99.90;;;;;;5129115;27;20015;-52
2022/01/31 01:29:27;;;;;;;19.90;5.38;;;2.60;99.90;;;;;;5110184;27;20517;-50
2022/01/31 01:31:52;;;;;;;20.90;4.05;;;2.60;99.90;;;;;;5129158;27;20030;-49
2022/01/31 01:34:20;;;;;;;17.67;4.05;;;2.70;99.90;;;;;;5128420;27;20098;-49
2022/01/31 01:36:47;;;;;;;19.90;5.55;;;2.60;99.90;;;;;;5129516;27;20045;-49
2022/01/31 01:39:12;;;;;;;21.42;6.20;;;2.60;99.90;;;;;;5128758;27;20007;-50
2022/01/31 01:41:38;;;;;;;25.70;6.18;;;2.60;99.90;;;;;;5109717;27;20256;-48
2022/01/31 01:44:04;;;;;;;28.20;6.00;;;2.60;99.90;;;;;;5128295;27;20027;-49
2022/01/31 01:46:30;;;;;;;19.55;5.22;;;2.60;99.90;;;;;;5129190;27;20056;-51
2022/01/31 01:48:56;;;;;;;18.67;5.35;;;2.50;99.90;;;;;;5110429;27;21070;-51
2022/01/31 01:51:21;;;;;;;31.08;6.18;;;2.60;99.90;;;;;;5127738;27;20049;-51
2022/01/31 01:53:47;;;;;;;27.58;5.00;;;2.60;99.90;;;;;;5128552;27;20027;-50
2022/01/31 01:56:14;;;;;;;23.05;5.32;;;2.60;99.90;;;;;;5110060;27;20080;-49
2022/01/31 01:58:43;;;;;;;23.23;4.43;;;2.60;99.90;;;;;;5126799;27;20199;-50
2022/01/31 02:01:11;;;;;;;30.83;6.45;;;2.60;99.90;;;;;;5126024;27;20019;-52
2022/01/31 02:03:39;;;;;;;24.35;5.28;;;2.50;99.90;;;;;;5125965;27;20593;-49
2022/01/31 02:06:06;;;;;;;21.27;4.40;;;2.50;99.90;;;;;;5128304;27;20050;-49
2022/01/31 02:08:40;;;;;;;24.42;5.07;;;2.60;99.90;;;;;;5127684;27;20060;-54
2022/01/31 02:11:08;;;;;;;18.17;4.25;;;2.60;99.90;;;;;;5109751;27;20107;-50
2022/01/31 02:13:36;;;;;;;15.85;4.30;;;2.50;99.90;;;;;;5127114;27;20049;-53
2022/01/31 02:16:02;;;;;;;18.00;5.07;;;2.60;99.90;;;;;;5127741;27;20467;-48
2022/01/31 02:18:29;;;;;;;26.52;5.88;;;2.60;99.90;;;;;;5128406;27;20034;-51
2022/01/31 02:20:55;;;;;;;16.90;5.18;;;2.60;99.90;;;;;;5126754;27;20064;-51
2022/01/31 02:23:21;;;;;;;23.20;4.22;;;2.60;99.90;;;;;;5127358;27;20027;-49
2022/01/31 02:26:01;;;;;;;17.83;4.20;;;2.60;99.90;;;;;;5128496;28;20372;-50
2022/01/31 02:28:29;;;;;;;18.95;4.82;;;2.60;99.90;;;;;;5127747;27;20110;-51
2022/01/31 02:30:55;;;;;;;23.42;5.75;;;2.60;99.90;;;;;;5110233;28;20034;-49
2022/01/31 02:33:22;;;;;;;16.10;4.57;;;2.70;99.90;;;;;;5127332;28;20027;-49
2022/01/31 02:35:51;;;;;;;22.27;5.05;;;2.70;99.90;;;;;;5127708;28;20023;-49
2022/01/31 02:38:17;;;;;;;18.65;5.25;;;2.60;99.90;;;;;;5128335;28;20019;-53
2022/01/31 02:40:44;;;;;;;22.30;4.88;;;2.60;99.90;;;;;;5128711;27;20546;-53
2022/01/31 02:43:10;;;;;;;21.35;4.28;;;2.70;99.90;;;;;;5128093;28;20027;-51
2022/01/31 02:45:36;;;;;;;28.98;6.18;;;2.60;99.90;;;;;;5127696;28;20026;-49
2022/01/31 02:48:03;;;;;;;15.40;3.35;;;2.60;99.90;;;;;;5128309;28;20014;-52
2022/01/31 02:50:28;;;;;;;28.52;6.15;;;2.60;99.90;;;;;;5126904;28;20023;-49
2022/01/31 02:53:10;;;;;;;16.63;4.18;;;2.70;99.90;;;;;;5109919;28;20016;-49
2022/01/31 02:55:37;;;;;;;17.88;4.90;;;2.70;99.90;;;;;;5127703;28;20051;-53
2022/01/31 02:58:02;;;;;;;24.77;4.57;;;2.70;99.90;;;;;;5128181;27;20474;-52
2022/01/31 03:00:28;;;;;;;24.92;5.30;;;2.60;99.90;;;;;;5126940;28;20038;-47
2022/01/31 03:02:53;;;;;;;15.68;4.28;;;2.60;99.90;;;;;;5127195;27;20520;-49
2022/01/31 03:05:19;;;;;;;17.15;4.25;;;2.50;99.90;;;;;;5126891;28;20027;-49
2022/01/31 03:07:44;;;;;;;21.58;5.60;;;2.50;99.90;;;;;;5109344;28;20011;-50
2022/01/31 03:10:10;;;;;;;15.90;3.80;;;2.50;99.90;;;;;;5127974;28;20019;-53
2022/01/31 03:12:35;;;;;;;19.70;4.80;;;2.50;99.90;;;;;;5108340;28;20020;-50
2022/01/31 03:15:01;;;;;;;22.10;5.18;;;2.40;99.90;;;;;;5127821;28;20030;-51
2022/01/31 03:17:27;;;;;;;15.18;4.57;;;2.40;99.90;;;;;;5127123;28;20019;-50
2022/01/31 03:19:54;;;;;;;14.13;4.18;;;2.30;99.90;;;;;;5109918;28;20015;-52
2022/01/31 03:22:21;;;;;;;12.43;4.35;;;2.20;99.90;;;;;;5126638;28;20061;-49
2022/01/31 03:24:48;;;;;;;18.08;4.55;;;2.10;99.90;;;;;;5127617;27;20030;-50
2022/01/31 03:27:14;;;;;;;12.70;4.47;;;2.10;99.90;;;;;;5127954;28;20011;-50
2022/01/31 03:29:40;;;;;;;14.25;4.60;;;2.00;99.90;;;;;;5127156;28;20372;-52
2022/01/31 03:32:06;;;;;;;11.82;4.20;;;2.00;99.90;;;;;;5127412;27;20027;-50
2022/01/31 03:34:31;;;;;;;14.52;3.92;;;1.90;99.90;;;;;;5131015;27;20597;-50
2022/01/31 03:36:57;;;;;;;15.50;4.68;;;1.90;99.90;;;;;;5131073;27;20038;-49
2022/01/31 03:39:23;;;;;;;14.93;4.25;;;1.90;99.90;;;;;;5130016;27;20039;-50
2022/01/31 03:41:48;;;;;;;13.32;4.35;;;1.90;99.90;;;;;;5130647;27;20140;-50
2022/01/31 03:44:14;;;;;;;16.45;4.60;;;1.90;99.90;;;;;;5112196;27;20459;-51
2022/01/31 03:46:39;;;;;;;15.98;4.70;;;1.90;99.90;;;;;;5130900;27;20097;-50
2022/01/31 03:49:05;;;;;;;17.52;4.53;;;1.90;99.90;;;;;;5112626;27;20502;-50
2022/01/31 03:51:31;;;;;;;12.38;4.95;;;1.90;99.90;;;;;;5130925;27;20058;-52
2022/01/31 03:53:56;;;;;;;15.88;4.00;;;1.90;99.90;;;;;;5131430;27;20034;-51
2022/01/31 03:56:22;;;;;;;13.27;3.60;;;1.90;99.90;;;;;;5130854;27;20034;-50
2022/01/31 03:58:48;;;;;;;13.98;4.40;;;1.80;99.90;;;;;;5130781;27;20023;-48
2022/01/31 04:01:13;;;;;;;17.15;4.25;;;1.80;99.90;;;;;;5130769;27;20281;-53
2022/01/31 04:03:39;;;;;;;8.30;4.03;;;1.80;99.90;;;;;;5130046;27;20479;-52
2022/01/31 04:06:05;;;;;;;12.18;3.80;;;1.90;99.90;;;;;;5112995;27;20110;-52
2022/01/31 04:08:30;;;;;;;11.07;4.15;;;1.80;99.90;;;;;;5130132;27;20015;-52
2022/01/31 04:10:56;;;;;;;17.35;4.78;;;1.80;99.90;;;;;;5130862;27;20417;-50
2022/01/31 04:13:22;;;;;;;14.27;3.97;;;1.90;99.90;;;;;;5130344;27;20030;-53
2022/01/31 04:15:47;;;;;;;17.15;3.72;;;1.90;99.90;;;;;;5130243;27;20044;-49
2022/01/31 04:18:13;;;;;;;14.15;4.18;;;1.90;99.90;;;;;;5111245;27;20023;-52
2022/01/31 04:20:39;;;;;;;16.65;4.88;;;1.80;99.90;;;;;;5129621;27;20161;-50
2022/01/31 04:23:14;;;;;;;18.65;4.18;;;1.90;99.90;;;;;;5130286;27;20015;-50
2022/01/31 04:25:43;;;;;;;14.85;4.15;;;1.90;99.90;;;;;;5130033;27;20027;-50
2022/01/31 04:28:22;;;;;;;22.25;5.25;;;1.90;99.90;;;;;;5130878;27;20027;-50
2022/01/31 04:33:19;;;;;;;17.67;4.53;;;1.80;99.90;;;;;;5129801;27;20034;-50
2022/01/31 04:35:45;;;;;;;23.10;4.88;;;1.80;99.90;;;;;;5110959;27;20518;-52
2022/01/31 04:38:10;;;;;;;13.63;5.25;;;1.80;99.90;;;;;;5130403;27;20187;-51
2022/01/31 04:40:36;;;;;;;16.63;4.55;;;1.90;99.90;;;;;;5129878;27;20024;-51
2022/01/31 04:43:02;;;;;;;22.85;3.75;;;1.80;99.90;;;;;;5130689;27;20064;-51
2022/01/31 04:45:27;;;;;;;22.50;4.82;;;1.80;99.90;;;;;;5128877;27;20098;-51
2022/01/31 04:47:53;;;;;;;14.93;4.38;;;1.80;99.90;;;;;;5112093;27;20023;-53
2022/01/31 04:50:18;;;;;;;12.82;3.75;;;1.90;99.90;;;;;;5130245;27;20043;-53
2022/01/31 04:52:44;;;;;;;17.70;4.13;;;1.80;99.90;;;;;;5129329;27;20027;-49
2022/01/31 04:55:10;;;;;;;21.75;4.85;;;1.80;99.90;;;;;;5130368;27;20022;-51
2022/01/31 04:57:36;;;;;;;16.98;4.47;;;1.80;99.90;;;;;;5129011;27;20023;-54
2022/01/31 05:00:05;;;;;;;25.40;4.38;;;1.80;99.90;;;;;;5129054;27;20079;-52
2022/01/31 05:02:31;;;;;;;16.02;5.07;;;1.90;99.90;;;;;;5129419;27;20035;-51
2022/01/31 05:04:56;;;;;;;16.13;4.22;;;1.80;99.90;;;;;;5129895;27;20015;-54
2022/01/31 05:07:22;;;;;;;22.27;5.57;;;1.90;99.90;;;;;;5111070;27;20028;-50
2022/01/31 05:09:48;;;;;;;16.50;4.28;;;1.90;99.90;;;;;;5129551;27;20094;-49
2022/01/31 05:12:14;;;;;;;14.48;4.13;;;1.90;99.90;;;;;;5128857;27;20522;-51
2022/01/31 05:14:39;;;;;;;12.23;3.97;;;1.80;99.90;;;;;;5129625;27;20027;-52
2022/01/31 05:17:05;;;;;;;14.45;4.18;;;1.90;99.90;;;;;;5129789;27;20152;-53
2022/01/31 05:19:30;;;;;;;13.55;4.20;;;1.80;99.90;;;;;;5128836;27;20034;-51
2022/01/31 05:21:56;;;;;;;20.15;3.88;;;1.80;99.90;;;;;;5129088;27;20031;-51
2022/01/31 05:24:21;;;;;;;19.02;4.07;;;1.80;99.90;;;;;;5128549;27;20144;-50
2022/01/31 05:26:50;;;;;;;10.25;3.65;;;1.80;99.90;;;;;;5129182;27;20019;-53
2022/01/31 05:29:17;;;;;;;18.30;4.07;;;1.80;99.90;;;;;;5128879;27;20018;-50
2022/01/31 05:31:42;;;;;;;22.38;5.03;;;1.80;99.90;;;;;;5128640;27;20487;-51
2022/01/31 05:34:08;;;;;;;17.73;3.65;;;1.80;99.90;;;;;;5128707;27;20152;-54
2022/01/31 05:36:34;;;;;;;15.30;4.35;;;1.70;99.90;;;;;;5128407;27;20034;-49
2022/01/31 05:38:59;;;;;;;18.05;4.35;;;1.80;99.90;;;;;;5129001;27;20119;-51
2022/01/31 05:41:25;;;;;;;21.25;4.75;;;1.70;99.90;;;;;;5128222;27;20519;-50
2022/01/31 05:43:50;;;;;;;16.60;3.97;;;1.70;99.90;;;;;;5139310;22;20754;-58
2022/01/31 05:46:17;;;;;;;17.83;5.60;;;1.80;99.90;;;;;;5100219;27;20023;-52
2022/01/31 05:48:42;;;;;;;17.15;4.15;;;1.80;99.90;;;;;;5119198;27;20015;-57
2022/01/31 05:51:16;;;;;;;16.85;5.15;;;1.70;99.90;;;;;;5120138;27;20073;-52
2022/01/31 05:53:42;;;;;;;20.45;4.68;;;1.80;99.90;;;;;;5119159;27;20065;-56
2022/01/31 05:56:08;;;;;;;13.73;4.25;;;1.80;99.90;;;;;;5119468;27;20020;-53
2022/01/31 05:58:35;;;;;;;15.55;4.25;;;1.70;99.90;;;;;;5120245;27;20023;-56
2022/01/31 06:01:00;;;;;;;17.83;5.00;;;1.80;99.90;;;;;;5119672;27;20263;-53
2022/01/31 06:03:26;;;;;;;23.45;5.65;;;1.80;99.90;;;;;;5119476;27;20059;-54
2022/01/31 06:05:51;;;;;;;17.40;4.53;;;1.80;99.90;;;;;;5101036;27;20015;-51
2022/01/31 06:08:17;;;;;;;20.38;4.63;;;1.80;99.90;;;;;;5117638;27;20459;-55
2022/01/31 06:10:45;;;;;;;22.45;5.15;;;1.80;99.90;;;;;;5117458;27;20076;-52
2022/01/31 06:13:11;;;;;;;18.38;4.55;;;1.80;99.90;;;;;;5117849;27;20395;-58
2022/01/31 06:15:36;;;;;;;17.50;4.85;;;1.80;99.90;;;;;;5118001;27;20106;-54
2022/01/31 06:18:02;;;;;;;19.83;4.93;;;1.80;99.90;;;;;;5118292;27;20068;-52
2022/01/31 06:20:28;;;;;;;18.08;4.90;;;1.80;99.90;;;;;;5117734;27;20026;-52
2022/01/31 06:22:54;;;;;;;23.48;5.10;;;1.80;99.90;;;;;;5118297;27;20019;-54
2022/01/31 06:25:21;;;;;;;13.20;5.20;;;1.80;99.90;;;;;;5118699;27;20081;-52
2022/01/31 06:27:47;;;;;;;18.02;4.97;;;1.80;99.90;;;;;;5119255;27;20016;-54
2022/01/31 06:30:13;;;;;;;21.67;5.07;;;1.80;99.90;;;;;;5118651;27;20016;-53
2022/01/31 06:32:39;;;;;;;24.85;5.68;;;1.80;99.90;;;;;;5118478;27;20035;-54
2022/01/31 06:35:06;;;;;;;17.38;4.63;;;1.80;99.90;;;;;;5119270;28;20502;-57
2022/01/31 06:37:31;;;;;;;19.98;5.82;;;1.70;99.90;;;;;;5100087;28;20027;-51
2022/01/31 06:39:57;;;;;;;21.80;5.05;;;1.70;99.90;;;;;;5119730;28;20026;-57
2022/01/31 06:42:23;;;;;;;12.13;3.20;;;1.80;99.90;;;;;;5119187;28;20501;-56
2022/01/31 06:44:48;;;;;;;17.08;4.85;;;1.70;99.90;;;;;;5119114;28;20030;-55
2022/01/31 06:47:14;;;;;;;17.20;3.83;;;1.70;99.90;;;;;;5118692;28;20088;-57
2022/01/31 06:49:40;;;;;;;21.67;4.80;;;1.70;99.90;;;;;;5118539;28;20027;-54
2022/01/31 06:52:06;;;;;;;15.38;4.65;;;1.70;99.90;;;;;;5118098;28;20522;-56
2022/01/31 06:54:32;;;;;;;17.60;5.22;;;1.70;99.90;;;;;;5118752;28;20478;-58
2022/01/31 06:56:58;;;;;;;22.17;4.85;;;1.70;99.90;;;;;;5119122;28;20090;-57
2022/01/31 06:59:23;;;;;;;18.90;5.25;;;1.70;99.90;;;;;;5119182;28;20044;-56
2022/01/31 07:01:49;;;;;;;16.92;6.15;;;1.70;99.90;;;;;;5118636;28;20100;-53
2022/01/31 07:04:15;;;;;;;16.23;4.72;;;1.60;99.90;;;;;;5118499;28;20530;-55
2022/01/31 07:06:41;;;;;;;23.33;5.75;;;1.60;99.90;;;;;;5118804;28;20094;-56
2022/01/31 07:09:07;;;;;;;18.88;4.88;;;1.60;99.90;;;;;;5122027;27;20494;-54
2022/01/31 07:11:37;;;;;;;12.70;4.75;;;1.60;99.90;;;;;;5122567;27;20108;-57
2022/01/31 07:14:06;;;;;;;14.10;4.75;;;1.60;99.90;;;;;;5122004;27;20497;-50
2022/01/31 07:16:34;;;;;;;23.75;5.40;;;1.50;99.90;;;;;;5123193;27;20030;-57
2022/01/31 07:19:06;;;;;;;15.65;4.57;;;1.60;99.90;;;;;;5123793;27;20020;-57
2022/01/31 07:21:46;;;;;;;16.15;5.22;;;1.60;99.90;;;;;;5121543;27;20023;-54
2022/01/31 07:26:44;;;;;;;21.95;4.47;;;1.50;99.90;;;;;;5120601;27;20028;-58
2022/01/31 07:29:11;;;;;;;12.32;4.55;;;1.50;99.90;;;;;;5121102;27;20023;-53
2022/01/31 07:31:36;;;;;;;21.50;6.72;;;1.50;99.90;;;;;;5121114;27;20027;-56
2022/01/31 07:34:02;;;;;;;16.42;4.57;;;1.50;99.90;;;;;;5121242;27;20020;-55
2022/01/31 07:36:29;;;;;;;16.60;4.88;;;1.50;99.90;;;;;;5121565;27;20106;-53
2022/01/31 07:38:55;;;;;;;17.63;4.88;;;1.50;99.90;;;;;;5121417;27;20502;-54
2022/01/31 07:41:21;;;;;;;17.67;4.63;;;1.50;99.90;;;;;;5122801;27;20039;-57
2022/01/31 07:43:46;;;;;;;21.67;5.18;;;1.50;99.90;;;;;;5120601;27;20434;-55
2022/01/31 07:46:13;;;;;;;14.63;4.53;;;1.40;99.90;;;;;;5103764;27;20529;-54
2022/01/31 07:48:39;;;;;;;24.38;6.30;;;1.40;99.90;;;;;;5103152;27;20059;-55
2022/01/31 07:51:04;;;;;;;16.77;5.88;;;1.40;99.90;;;;;;5122023;27;20046;-51
2022/01/31 07:53:30;;;;;;;15.85;5.13;;;1.30;99.90;;;;;;5121881;27;20033;-55
2022/01/31 07:55:56;;;;;;;14.82;4.70;;;1.40;99.90;;;;;;5121795;27;20028;-51
2022/01/31 07:58:21;;;;;;;15.30;4.97;;;1.30;99.90;;;;;;5121172;27;20103;-54
2022/01/31 08:00:47;;;;;;;13.82;3.97;;;1.30;99.90;;;;;;5121658;27;20028;-56
2022/01/31 08:03:14;;;;;;;18.65;5.63;;;1.30;99.90;;;;;;5122189;27;20051;-52
2022/01/31 08:05:39;;;;;;;20.42;5.30;;;1.40;99.90;;;;;;5121721;27;20031;-57
2022/01/31 08:08:05;;;;;;;16.70;4.75;;;1.30;99.90;;;;;;5122041;27;20075;-52
2022/01/31 08:10:32;;;;;;;16.67;5.45;;;1.30;99.90;;;;;;5122327;27;20034;-52
2022/01/31 08:13:00;;;;;;;13.98;4.93;;;1.30;99.90;;;;;;5102938;27;20019;-50
2022/01/31 08:15:28;;;;;;;19.80;5.68;;;1.30;99.90;;;;;;5120354;27;20023;-54
2022/01/31 08:17:54;;;;;;;21.98;5.15;;;1.30;99.90;;;;;;5121367;27;20023;-55
2022/01/31 08:20:19;;;;;;;13.23;4.47;;;1.30;99.90;;;;;;5119770;27;20030;-54
2022/01/31 08:22:45;;;;;;;18.95;5.15;;;1.30;99.90;;;;;;5120481;27;20538;-51
2022/01/31 08:25:14;;;;;;;13.73;4.63;;;1.30;99.90;;;;;;5120813;27;20115;-53
2022/01/31 08:27:47;;;;;;;15.48;5.93;;;1.30;99.90;;;;;;5120809;27;20023;-52
2022/01/31 08:30:19;;;;;;;18.40;5.15;;;1.40;99.90;;;;;;5102435;27;20020;-51
2022/01/31 08:32:57;;;;;;;21.92;5.35;;;1.40;99.90;;;;;;5119698;27;20031;-52
2022/01/31 08:38:23;;;;;;;24.45;5.65;;;1.40;99.90;;;;;;5038805;28;20033;-54
2022/01/31 08:40:49;;;;;;;18.33;5.28;;;1.40;99.90;;;;;;5103259;27;20035;-52
2022/01/31 08:43:17;;;;;;;15.48;4.47;;;1.40;99.90;;;;;;5120352;27;20026;-53
2022/01/31 08:45:43;;;;;;;14.82;5.03;;;1.40;99.90;;;;;;5120827;27;20016;-52
2022/01/31 08:48:08;;;;;;;17.00;4.95;;;1.50;99.90;;;;;;5120770;27;20030;-50
2022/01/31 08:50:35;;;;;;;13.43;4.95;;;1.50;99.90;;;;;;5121011;27;20402;-55
2022/01/31 08:53:00;;;;;;;16.83;4.38;;;1.50;99.90;;;;;;5102258;27;20098;-54
2022/01/31 08:55:26;;;;;;;19.08;5.95;;;1.50;99.90;;;;;;5101374;27;20115;-54
2022/01/31 08:57:55;;;;;;;22.27;6.20;;;1.50;99.90;;;;;;5121255;27;20486;-55
2022/01/31 09:00:22;;;;;;;17.85;6.22;;;1.50;99.90;;;;;;5120600;27;20575;-53
2022/01/31 09:03:02;;;;;;;15.45;4.57;;;1.50;99.90;;;;;;5119732;27;20019;-55
2022/01/31 09:05:29;;;;;;;13.30;5.13;;;1.50;99.90;;;;;;5120467;27;20035;-53
2022/01/31 09:07:55;;;;;;;15.98;5.30;;;1.60;99.90;;;;;;5101981;27;20102;-52
2022/01/31 09:10:20;;;;;;;26.52;6.82;;;1.60;99.90;;;;;;5119717;27;20152;-52
2022/01/31 09:12:46;;;;;;;13.63;5.22;;;1.60;99.90;;;;;;5119100;27;20098;-53
2022/01/31 09:15:14;;;;;;;15.07;5.22;;;1.60;99.90;;;;;;5121618;27;20368;-56
2022/01/31 09:17:41;;;;;;;12.95;5.15;;;1.70;99.90;;;;;;5120118;27;20110;-52
2022/01/31 09:20:07;;;;;;;22.20;6.32;;;1.60;99.90;;;;;;5119383;27;20115;-52
2022/01/31 09:22:33;;;;;;;14.07;5.38;;;1.60;99.90;;;;;;5120178;27;20023;-54
2022/01/31 09:24:59;;;;;;;16.20;5.78;;;1.70;99.90;;;;;;5103520;27;20022;-55
2022/01/31 09:27:24;;;;;;;18.52;6.10;;;1.70;99.90;;;;;;5121728;27;20027;-52
2022/01/31 09:29:50;;;;;;;22.00;6.47;;;1.70;99.90;;;;;;5121734;27;20497;-55
2022/01/31 09:32:21;;;;;;;17.80;5.40;;;1.70;99.90;;;;;;5121786;27;20019;-53
2022/01/31 09:34:47;;;;;;;19.98;5.35;;;1.70;99.90;;;;;;5122033;27;20042;-57
2022/01/31 09:37:12;;;;;;;13.57;5.72;;;1.70;99.90;;;;;;5120348;27;20055;-56
2022/01/31 09:39:38;;;;;;;13.60;4.95;;;1.70;99.90;;;;;;5119955;27;20024;-52
2022/01/31 09:42:13;;;;;;;20.98;6.45;;;1.70;99.90;;;;;;5118898;27;20034;-51
2022/01/31 09:45:04;;;;;;;15.38;5.93;;;1.70;99.90;;;;;;5101018;27;20110;-55
2022/01/31 09:50:14;;;;;;;13.55;5.47;;;1.80;99.90;;;;;;5120263;27;20026;-54
2022/01/31 09:52:40;;;;;;;16.92;5.22;;;1.80;99.90;;;;;;5118702;27;20031;-52
2022/01/31 09:55:07;;;;;;;18.30;6.05;;;1.90;99.90;;;;;;5119909;27;20020;-55
2022/01/31 09:57:33;;;;;;;16.55;6.03;;;1.90;99.90;;;;;;5120122;27;20107;-57
2022/01/31 09:59:59;;;;;;;14.93;5.00;;;2.00;99.90;;;;;;5119365;27;20047;-53
2022/01/31 10:02:24;;;;;;;19.65;6.18;;;2.00;99.90;;;;;;5119700;27;20045;-55
2022/01/31 10:04:50;;;;;;;17.48;6.28;;;2.10;99.90;;;;;;5118008;27;20030;-53
2022/01/31 10:07:17;;;;;;;11.82;6.22;;;2.10;99.90;;;;;;5120728;27;20011;-54
2022/01/31 10:09:46;;;;;;;11.35;5.00;;;2.20;99.90;;;;;;5119609;27;20084;-54
2022/01/31 10:17:38;;;;;;;17.77;6.05;;;2.30;99.90;;;;;;5119330;27;20045;-55
2022/01/31 10:20:22;;;;;;;15.80;5.65;;;2.30;99.90;;;;;;5101228;27;20015;-54
2022/01/31 10:22:47;;;;;;;13.68;5.03;;;2.40;99.90;;;;;;5100402;28;20054;-54
2022/01/31 10:25:17;;;;;;;11.60;5.60;;;2.40;99.90;;;;;;5118800;27;20108;-52
2022/01/31 10:27:48;;;;;;;14.23;5.88;;;2.40;99.90;;;;;;5118816;27;20016;-53
2022/01/31 10:30:19;;;;;;;12.20;6.05;;;2.50;99.90;;;;;;5120215;27;20386;-54
2022/01/31 10:32:47;;;;;;;16.23;5.30;;;2.60;99.90;;;;;;5118238;27;20161;-55
2022/01/31 10:35:19;;;;;;;9.73;5.35;;;2.60;99.90;;;;;;5118312;27;20064;-54
2022/01/31 10:37:46;;;;;;;12.70;6.43;;;2.60;99.90;;;;;;5118749;28;20498;-54
2022/01/31 10:46:32;;;;;;;13.90;4.70;;;2.70;99.90;;;;;;5123051;27;20436;-53
2022/01/31 10:51:57;;;;;;;6.80;4.35;;;2.70;99.90;;;;;;5123625;27;20038;-55
2022/01/31 10:54:38;;;;;;;9.88;5.03;;;2.80;99.90;;;;;;5122985;27;20661;-51
2022/01/31 10:57:19;;;;;;;7.75;4.00;;;2.80;99.90;;;;;;5123212;27;20589;-54
2022/01/31 10:59:48;;;;;;;8.98;4.10;;;2.80;99.90;;;;;;5123451;27;20494;-54
2022/01/31 11:02:25;;;;;;;7.55;4.80;;;2.90;99.90;;;;;;5121573;27;20147;-53
2022/01/31 11:04:52;;;;;;;7.85;4.43;;;2.90;99.90;;;;;;5123045;27;20688;-50
2022/01/31 11:07:25;;;;;;;6.93;3.53;;;2.90;99.90;;;;;;5104322;27;20039;-56
2022/01/31 11:09:53;;;;;;;5.75;3.80;;;2.90;99.90;;;;;;5121711;27;20754;-53
2022/01/31 11:12:24;;;;;;;5.97;4.13;;;2.90;99.90;;;;;;5122675;27;20025;-53
2022/01/31 11:14:53;;;;;;;5.28;3.08;;;2.90;99.90;;;;;;5102305;27;20110;-52
2022/01/31 11:17:18;;;;;;;9.88;4.38;;;2.90;99.90;;;;;;5121460;27;20119;-55
2022/01/31 11:19:48;;;;;;;7.65;3.92;;;2.90;99.90;;;;;;5103935;27;20482;-56
2022/01/31 11:22:16;;;;;;;7.03;4.10;;;2.90;99.90;;;;;;5103555;27;20023;-56
2022/01/31 11:24:48;;;;;;;10.52;4.10;;;3.00;99.90;;;;;;5121463;27;20417;-55
2022/01/31 11:27:17;;;;;;;12.93;4.68;;;3.00;99.90;;;;;;5123966;27;20034;-55
2022/01/31 11:29:45;;;;;;;6.90;4.75;;;3.00;99.90;;;;;;5103992;27;20114;-54
2022/01/31 11:32:12;;;;;;;7.13;4.32;;;3.00;99.90;;;;;;5121141;27;20031;-57
2022/01/31 11:34:39;;;;;;;9.50;4.28;;;3.10;99.90;;;;;;5101993;27;20449;-54
2022/01/31 11:37:10;;;;;;;8.10;5.13;;;3.10;99.90;;;;;;5122998;27;20050;-53
2022/01/31 11:39:39;;;;;;;9.95;3.65;;;3.20;99.90;;;;;;5122078;27;20436;-53
2022/01/31 11:42:06;;;;;;;9.05;3.97;;;3.20;99.90;;;;;;5122480;27;20023;-54
2022/01/31 11:44:46;;;;;;;7.10;4.25;;;3.20;99.90;;;;;;5120323;27;20035;-54
2022/01/31 11:47:12;;;;;;;6.95;3.85;;;3.10;99.90;;;;;;5122708;27;20011;-55
2022/01/31 11:49:54;;;;;;;8.32;3.78;;;3.10;99.90;;;;;;5122013;27;20165;-52
2022/01/31 11:52:21;;;;;;;7.00;4.32;;;3.20;99.90;;;;;;5121908;27;20063;-52
2022/01/31 11:55:00;;;;;;;7.65;4.60;;;3.20;99.90;;;;;;5122099;27;20037;-54
2022/01/31 11:57:32;;;;;;;8.65;4.65;;;3.10;99.90;;;;;;5102606;27;20038;-53
2022/01/31 12:00:00;;;;;;;9.55;4.20;;;3.10;99.90;;;;;;5086330;27;20454;-54
2022/01/31 12:02:32;;;;;;;9.77;4.47;;;3.00;99.90;;;;;;5121272;27;20134;-52
2022/01/31 12:05:06;;;;;;;7.93;4.50;;;3.00;99.90;;;;;;5122209;27;20058;-52
2022/01/31 12:07:36;;;;;;;5.88;4.20;;;3.00;99.90;;;;;;5122179;27;20055;-56
2022/01/31 12:10:01;;;;;;;10.05;4.65;;;3.00;99.90;;;;;;5121931;27;20016;-54
2022/01/31 12:12:43;;;;;;;8.02;5.00;;;3.10;99.90;;;;;;5103207;27;20035;-53
2022/01/31 12:23:43;;;;;;;12.38;4.72;;;3.10;99.90;;;;;;5120837;27;20033;-52
2022/01/31 12:26:33;;;;;;;8.32;4.88;;;3.10;99.90;;;;;;5120656;27;20023;-50
2022/01/31 12:29:00;;;;;;;8.73;5.25;;;3.10;99.90;;;;;;5122404;27;20153;-53
2022/01/31 12:31:35;;;;;;;9.57;4.80;;;3.00;99.90;;;;;;5120676;27;20023;-54
2022/01/31 12:34:04;;;;;;;8.82;6.18;;;3.10;99.90;;;;;;5120456;27;20106;-53
2022/01/31 12:36:35;;;;;;;15.57;5.18;;;3.10;99.90;;;;;;5120097;27;20028;-55
2022/01/31 12:39:24;;;;;;;10.98;5.70;;;3.00;99.90;;;;;;5121538;27;20473;-53
2022/01/31 12:41:59;;;;;;;13.25;5.28;;;3.10;99.90;;;;;;5119361;27;20038;-58
2022/01/31 12:44:36;;;;;;;12.20;5.22;;;3.10;99.90;;;;;;5101865;27;20063;-52
2022/01/31 12:47:14;;;;;;;9.98;5.15;;;3.00;99.90;;;;;;5120766;27;20019;-55
2022/01/31 12:49:41;;;;;;;9.13;5.20;;;3.00;99.90;;;;;;5120841;27;20016;-50
2022/01/31 12:52:08;;;;;;;11.85;5.28;;;3.00;99.90;;;;;;5119961;27;20027;-54
2022/01/31 12:54:38;;;;;;;13.40;6.07;;;3.00;99.90;;;;;;5121003;27;20513;-54
2022/01/31 12:57:13;;;;;;;13.80;5.82;;;3.00;99.90;;;;;;5101969;27;20034;-52
2022/01/31 12:59:40;;;;;;;10.93;6.35;;;3.00;99.90;;;;;;5120952;27;20027;-52
2022/01/31 13:02:08;;;;;;;14.13;6.82;;;3.10;99.90;;;;;;5120126;27;20058;-55
2022/01/31 13:04:35;;;;;;;11.32;6.72;;;3.10;99.90;;;;;;5120671;27;20016;-52
2022/01/31 13:07:04;;;;;;;16.30;6.63;;;3.10;99.90;;;;;;5119404;27;20148;-56
2022/01/31 13:09:31;;;;;;;14.63;6.35;;;3.10;99.90;;;;;;5101179;27;20103;-54
2022/01/31 13:12:06;;;;;;;18.30;6.63;;;3.00;99.90;;;;;;5118384;27;20594;-52
2022/01/31 13:14:35;;;;;;;14.52;6.72;;;3.10;99.90;;;;;;5118673;27;20027;-56
2022/01/31 13:17:07;;;;;;;13.55;6.25;;;3.10;99.90;;;;;;5119368;27;20019;-50
2022/01/31 13:19:35;;;;;;;11.80;6.88;;;3.10;99.90;;;;;;5119106;27;20113;-54
2022/01/31 13:22:08;;;;;;;16.85;7.00;;;3.10;99.90;;;;;;5120272;27;20028;-56
2022/01/31 13:24:40;;;;;;;14.88;6.95;;;3.00;99.90;;;;;;5118847;27;20026;-55